sensor_id;sensor_type;location;lat;lon;timestamp;pressure;altitude;pressure_sealevel;temperature;humidity
24306;BME280;12423;48.768;8.850;2023-03-03T00:02:01;97135.75;;;0.63;100.00
24306;BME280;12423;48.768;8.850;2023-03-03T00:04:02;97136.22;;;0.71;100.00
24306;BME280;12423;48.768;8.850;2023-03-03T00:06:04;97139.09;;;0.85;100.00
24306;BME280;12423;48.768;8.850;2023-03-03T00:08:05;97143.56;;;0.83;100.00
24306;BME280;12423;48.768;8.850;2023-03-03T00:10:06;97140.16;;;0.81;100.00
24306;BME280;12423;48.768;8.850;2023-03-03T00:12:26;97140.63;;;0.70;100.00
24306;BME280;12423;48.768;8.850;2023-03-03T00:14:29;97146.59;;;0.74;100.00
24306;BME280;12423;48.768;8.850;2023-03-03T00:16:37;97140.00;;;0.65;100.00
24306;BME280;12423;48.768;8.850;2023-03-03T00:18:41;97144.78;;;0.76;100.00
24306;BME280;12423;48.768;8.850;2023-03-03T00:20:48;97133.59;;;0.71;100.00
24306;BME280;12423;48.768;8.850;2023-03-03T00:22:49;97145.13;;;0.68;100.00
24306;BME280;12423;48.768;8.850;2023-03-03T00:24:50;97146.66;;;0.72;100.00
24306;BME280;12423;48.768;8.850;2023-03-03T00:26:54;97146.72;;;0.71;100.00
24306;BME280;12423;48.768;8.850;2023-03-03T00:28:56;97145.81;;;0.72;100.00
24306;BME280;12423;48.768;8.850;2023-03-03T00:30:59;97141.47;;;0.71;100.00
24306;BME280;12423;48.768;8.850;2023-03-03T00:33:00;97148.06;;;0.61;100.00
24306;BME280;12423;48.768;8.850;2023-03-03T00:37:26;97147.97;;;0.43;100.00
24306;BME280;12423;48.768;8.850;2023-03-03T00:39:37;97145.56;;;0.39;100.00
24306;BME280;12423;48.768;8.850;2023-03-03T00:41:39;97146.66;;;0.33;100.00
24306;BME280;12423;48.768;8.850;2023-03-03T00:43:40;97144.91;;;0.33;100.00
24306;BME280;12423;48.768;8.850;2023-03-03T00:45:45;97150.22;;;0.32;100.00
24306;BME280;12423;48.768;8.850;2023-03-03T00:47:46;97139.31;;;0.21;100.00
24306;BME280;12423;48.768;8.850;2023-03-03T00:49:47;97145.16;;;0.27;100.00
24306;BME280;12423;48.768;8.850;2023-03-03T00:51:48;97148.91;;;0.22;100.00
24306;BME280;12423;48.768;8.850;2023-03-03T00:53:49;97144.22;;;0.08;100.00
24306;BME280;12423;48.768;8.850;2023-03-03T00:55:51;97140.16;;;0.01;100.00
24306;BME280;12423;48.768;8.850;2023-03-03T00:57:52;97148.16;;;-0.03;100.00
24306;BME280;12423;48.768;8.850;2023-03-03T00:59:58;97143.69;;;-0.01;100.00
24306;BME280;12423;48.768;8.850;2023-03-03T01:02:00;97143.63;;;0.01;100.00
24306;BME280;12423;48.768;8.850;2023-03-03T01:04:01;97143.16;;;-0.09;100.00
24306;BME280;12423;48.768;8.850;2023-03-03T01:06:02;97137.31;;;-0.15;100.00
24306;BME280;12423;48.768;8.850;2023-03-03T01:08:03;97148.75;;;-0.16;100.00
24306;BME280;12423;48.768;8.850;2023-03-03T01:10:04;97147.63;;;-0.11;100.00
24306;BME280;12423;48.768;8.850;2023-03-03T01:12:06;97147.81;;;-0.15;100.00
24306;BME280;12423;48.768;8.850;2023-03-03T01:14:07;97147.16;;;-0.21;100.00
24306;BME280;12423;48.768;8.850;2023-03-03T01:16:08;97145.97;;;-0.13;100.00
24306;BME280;12423;48.768;8.850;2023-03-03T01:18:10;97142.88;;;-0.23;100.00
24306;BME280;12423;48.768;8.850;2023-03-03T01:20:15;97136.00;;;-0.26;100.00
24306;BME280;12423;48.768;8.850;2023-03-03T01:22:16;97139.41;;;-0.24;100.00
24306;BME280;12423;48.768;8.850;2023-03-03T01:24:17;97141.91;;;-0.21;100.00
24306;BME280;12423;48.768;8.850;2023-03-03T01:26:18;97144.78;;;-0.27;100.00
24306;BME280;12423;48.768;8.850;2023-03-03T01:28:19;97146.69;;;-0.30;100.00
24306;BME280;12423;48.768;8.850;2023-03-03T01:30:20;97149.44;;;-0.33;100.00
24306;BME280;12423;48.768;8.850;2023-03-03T01:32:23;97145.91;;;-0.32;100.00
24306;BME280;12423;48.768;8.850;2023-03-03T01:34:24;97147.53;;;-0.30;100.00
24306;BME280;12423;48.768;8.850;2023-03-03T01:36:26;97145.06;;;-0.33;100.00
24306;BME280;12423;48.768;8.850;2023-03-03T01:38:28;97145.19;;;-0.36;100.00
24306;BME280;12423;48.768;8.850;2023-03-03T01:40:30;97153.28;;;-0.42;100.00
24306;BME280;12423;48.768;8.850;2023-03-03T01:42:31;97154.31;;;-0.46;100.00
24306;BME280;12423;48.768;8.850;2023-03-03T01:44:33;97146.31;;;-0.43;100.00
24306;BME280;12423;48.768;8.850;2023-03-03T01:46:43;97147.56;;;-0.52;100.00
24306;BME280;12423;48.768;8.850;2023-03-03T01:48:46;97145.59;;;-0.47;100.00
24306;BME280;12423;48.768;8.850;2023-03-03T01:50:54;97149.16;;;-0.48;100.00
24306;BME280;12423;48.768;8.850;2023-03-03T01:52:57;97144.19;;;-0.56;100.00
24306;BME280;12423;48.768;8.850;2023-03-03T01:55:02;97140.75;;;-0.56;100.00
24306;BME280;12423;48.768;8.850;2023-03-03T01:57:06;97149.41;;;-0.54;100.00
24306;BME280;12423;48.768;8.850;2023-03-03T01:59:17;97144.19;;;-0.56;100.00
24306;BME280;12423;48.768;8.850;2023-03-03T02:01:21;97136.84;;;-0.69;100.00
24306;BME280;12423;48.768;8.850;2023-03-03T02:03:23;97126.19;;;-0.65;100.00
24306;BME280;12423;48.768;8.850;2023-03-03T02:05:24;97132.31;;;-0.64;100.00
24306;BME280;12423;48.768;8.850;2023-03-03T02:07:27;97129.59;;;-0.63;100.00
24306;BME280;12423;48.768;8.850;2023-03-03T02:09:50;97127.97;;;-0.65;100.00
24306;BME280;12423;48.768;8.850;2023-03-03T02:11:58;97120.94;;;-0.65;100.00
24306;BME280;12423;48.768;8.850;2023-03-03T02:14:00;97125.47;;;-0.68;100.00
24306;BME280;12423;48.768;8.850;2023-03-03T02:16:01;97129.00;;;-0.69;100.00
24306;BME280;12423;48.768;8.850;2023-03-03T02:18:12;97128.94;;;-0.68;100.00
24306;BME280;12423;48.768;8.850;2023-03-03T02:22:46;97121.88;;;-0.66;100.00
24306;BME280;12423;48.768;8.850;2023-03-03T02:24:50;97116.09;;;-0.74;100.00
24306;BME280;12423;48.768;8.850;2023-03-03T02:26:54;97111.63;;;-0.72;100.00
24306;BME280;12423;48.768;8.850;2023-03-03T02:28:56;97120.78;;;-0.82;100.00
24306;BME280;12423;48.768;8.850;2023-03-03T02:30:59;97129.31;;;-0.77;100.00
24306;BME280;12423;48.768;8.850;2023-03-03T02:33:00;97116.31;;;-0.80;100.00
24306;BME280;12423;48.768;8.850;2023-03-03T02:35:24;97118.81;;;-0.77;100.00
24306;BME280;12423;48.768;8.850;2023-03-03T02:37:28;97116.38;;;-0.82;100.00
24306;BME280;12423;48.768;8.850;2023-03-03T02:39:29;97120.22;;;-0.90;100.00
24306;BME280;12423;48.768;8.850;2023-03-03T02:42:03;97116.72;;;-0.91;100.00
24306;BME280;12423;48.768;8.850;2023-03-03T02:44:17;97117.72;;;-0.94;100.00
24306;BME280;12423;48.768;8.850;2023-03-03T02:46:19;97126.25;;;-0.88;100.00
24306;BME280;12423;48.768;8.850;2023-03-03T02:48:20;97129.84;;;-0.91;100.00
24306;BME280;12423;48.768;8.850;2023-03-03T02:50:20;97129.66;;;-0.86;100.00
24306;BME280;12423;48.768;8.850;2023-03-03T02:52:22;97124.47;;;-0.88;100.00
24306;BME280;12423;48.768;8.850;2023-03-03T02:54:25;97123.97;;;-0.98;100.00
24306;BME280;12423;48.768;8.850;2023-03-03T02:56:27;97135.19;;;-0.94;100.00
24306;BME280;12423;48.768;8.850;2023-03-03T02:58:28;97132.50;;;-0.93;100.00
24306;BME280;12423;48.768;8.850;2023-03-03T03:00:29;97123.19;;;-1.00;100.00
24306;BME280;12423;48.768;8.850;2023-03-03T03:02:30;97134.84;;;-1.07;100.00
24306;BME280;12423;48.768;8.850;2023-03-03T03:04:32;97128.97;;;-1.14;100.00
24306;BME280;12423;48.768;8.850;2023-03-03T03:06:33;97131.53;;;-1.12;100.00
24306;BME280;12423;48.768;8.850;2023-03-03T03:08:34;97141.09;;;-1.11;100.00
24306;BME280;12423;48.768;8.850;2023-03-03T03:10:35;97137.50;;;-1.08;100.00
24306;BME280;12423;48.768;8.850;2023-03-03T03:12:36;97141.81;;;-1.07;100.00
24306;BME280;12423;48.768;8.850;2023-03-03T03:14:38;97143.50;;;-1.05;100.00
24306;BME280;12423;48.768;8.850;2023-03-03T03:16:40;97138.25;;;-1.05;100.00
24306;BME280;12423;48.768;8.850;2023-03-03T03:18:41;97141.66;;;-1.03;100.00
24306;BME280;12423;48.768;8.850;2023-03-03T03:20:43;97137.41;;;-1.05;100.00
24306;BME280;12423;48.768;8.850;2023-03-03T03:22:44;97134.78;;;-1.05;100.00
24306;BME280;12423;48.768;8.850;2023-03-03T03:24:45;97133.13;;;-1.08;100.00
24306;BME280;12423;48.768;8.850;2023-03-03T03:26:46;97135.91;;;-1.13;100.00
24306;BME280;12423;48.768;8.850;2023-03-03T03:28:49;97137.56;;;-1.10;100.00
24306;BME280;12423;48.768;8.850;2023-03-03T03:30:51;97140.06;;;-1.07;100.00
24306;BME280;12423;48.768;8.850;2023-03-03T03:32:53;97138.13;;;-1.02;100.00
24306;BME280;12423;48.768;8.850;2023-03-03T03:34:55;97136.28;;;-1.00;100.00
24306;BME280;12423;48.768;8.850;2023-03-03T03:36:56;97144.94;;;-0.98;100.00
24306;BME280;12423;48.768;8.850;2023-03-03T03:38:58;97140.44;;;-0.94;100.00
24306;BME280;12423;48.768;8.850;2023-03-03T03:41:04;97145.50;;;-0.89;100.00
24306;BME280;12423;48.768;8.850;2023-03-03T03:43:06;97152.38;;;-0.85;100.00
24306;BME280;12423;48.768;8.850;2023-03-03T03:45:07;97142.66;;;-0.83;100.00
24306;BME280;12423;48.768;8.850;2023-03-03T03:47:08;97143.38;;;-0.80;100.00
24306;BME280;12423;48.768;8.850;2023-03-03T03:49:10;97142.31;;;-0.74;100.00
24306;BME280;12423;48.768;8.850;2023-03-03T03:51:11;97148.53;;;-0.77;100.00
24306;BME280;12423;48.768;8.850;2023-03-03T03:53:13;97146.56;;;-0.71;100.00
24306;BME280;12423;48.768;8.850;2023-03-03T03:55:14;97147.44;;;-0.71;100.00
24306;BME280;12423;48.768;8.850;2023-03-03T03:57:16;97141.44;;;-0.75;100.00
24306;BME280;12423;48.768;8.850;2023-03-03T03:59:18;97142.88;;;-0.66;100.00
24306;BME280;12423;48.768;8.850;2023-03-03T04:01:19;97138.41;;;-0.64;100.00
24306;BME280;12423;48.768;8.850;2023-03-03T04:03:23;97138.28;;;-0.61;100.00
24306;BME280;12423;48.768;8.850;2023-03-03T04:05:24;97145.09;;;-0.57;100.00
24306;BME280;12423;48.768;8.850;2023-03-03T04:07:25;97139.97;;;-0.60;100.00
24306;BME280;12423;48.768;8.850;2023-03-03T04:09:26;97140.66;;;-0.54;100.00
24306;BME280;12423;48.768;8.850;2023-03-03T04:11:28;97135.22;;;-0.50;100.00
24306;BME280;12423;48.768;8.850;2023-03-03T04:13:29;97136.22;;;-0.52;100.00
24306;BME280;12423;48.768;8.850;2023-03-03T04:15:32;97138.03;;;-0.54;100.00
24306;BME280;12423;48.768;8.850;2023-03-03T04:17:35;97133.66;;;-0.54;100.00
24306;BME280;12423;48.768;8.850;2023-03-03T04:19:36;97127.94;;;-0.43;100.00
24306;BME280;12423;48.768;8.850;2023-03-03T04:21:40;97130.97;;;-0.52;100.00
24306;BME280;12423;48.768;8.850;2023-03-03T04:23:41;97134.84;;;-0.41;100.00
24306;BME280;12423;48.768;8.850;2023-03-03T04:25:45;97127.03;;;-0.42;100.00
24306;BME280;12423;48.768;8.850;2023-03-03T04:27:48;97137.31;;;-0.36;100.00
24306;BME280;12423;48.768;8.850;2023-03-03T04:29:52;97142.50;;;-0.34;100.00
24306;BME280;12423;48.768;8.850;2023-03-03T04:31:54;97141.50;;;-0.32;100.00
24306;BME280;12423;48.768;8.850;2023-03-03T04:33:55;97148.53;;;-0.32;100.00
24306;BME280;12423;48.768;8.850;2023-03-03T04:35:57;97146.88;;;-0.35;100.00
24306;BME280;12423;48.768;8.850;2023-03-03T04:37:58;97143.34;;;-0.34;100.00
24306;BME280;12423;48.768;8.850;2023-03-03T04:39:59;97150.84;;;-0.25;100.00
24306;BME280;12423;48.768;8.850;2023-03-03T04:42:00;97150.75;;;-0.23;100.00
24306;BME280;12423;48.768;8.850;2023-03-03T04:44:01;97142.97;;;-0.25;100.00
24306;BME280;12423;48.768;8.850;2023-03-03T04:46:03;97149.00;;;-0.23;100.00
24306;BME280;12423;48.768;8.850;2023-03-03T04:48:05;97147.94;;;-0.19;100.00
24306;BME280;12423;48.768;8.850;2023-03-03T04:50:08;97146.44;;;-0.24;100.00
24306;BME280;12423;48.768;8.850;2023-03-03T04:52:09;97143.50;;;-0.16;100.00
24306;BME280;12423;48.768;8.850;2023-03-03T04:54:12;97148.66;;;-0.15;100.00
24306;BME280;12423;48.768;8.850;2023-03-03T04:56:13;97142.56;;;-0.15;100.00
24306;BME280;12423;48.768;8.850;2023-03-03T04:58:14;97150.84;;;-0.25;100.00
24306;BME280;12423;48.768;8.850;2023-03-03T05:00:16;97153.38;;;-0.23;100.00
24306;BME280;12423;48.768;8.850;2023-03-03T05:02:18;97156.47;;;-0.13;100.00
24306;BME280;12423;48.768;8.850;2023-03-03T05:04:20;97159.66;;;-0.05;100.00
24306;BME280;12423;48.768;8.850;2023-03-03T05:06:21;97162.16;;;-0.02;100.00
24306;BME280;12423;48.768;8.850;2023-03-03T05:08:22;97167.69;;;-0.08;100.00
24306;BME280;12423;48.768;8.850;2023-03-03T05:10:23;97166.03;;;-0.11;100.00
24306;BME280;12423;48.768;8.850;2023-03-03T05:12:24;97174.75;;;-0.10;100.00
24306;BME280;12423;48.768;8.850;2023-03-03T05:14:26;97177.19;;;-0.06;100.00
24306;BME280;12423;48.768;8.850;2023-03-03T05:16:27;97167.81;;;-0.11;100.00
24306;BME280;12423;48.768;8.850;2023-03-03T05:18:28;97172.44;;;-0.18;100.00
24306;BME280;12423;48.768;8.850;2023-03-03T05:20:29;97167.28;;;0.01;100.00
24306;BME280;12423;48.768;8.850;2023-03-03T05:22:30;97169.00;;;0.02;100.00
24306;BME280;12423;48.768;8.850;2023-03-03T05:24:31;97157.44;;;0.06;100.00
24306;BME280;12423;48.768;8.850;2023-03-03T05:26:32;97158.44;;;0.04;100.00
24306;BME280;12423;48.768;8.850;2023-03-03T05:28:33;97167.28;;;0.01;100.00
24306;BME280;12423;48.768;8.850;2023-03-03T05:30:35;97158.75;;;-0.04;100.00
24306;BME280;12423;48.768;8.850;2023-03-03T05:32:36;97159.53;;;-0.02;100.00
24306;BME280;12423;48.768;8.850;2023-03-03T05:34:37;97171.81;;;-0.03;100.00
24306;BME280;12423;48.768;8.850;2023-03-03T05:36:38;97161.13;;;0.02;100.00
24306;BME280;12423;48.768;8.850;2023-03-03T05:38:39;97158.50;;;0.02;100.00
24306;BME280;12423;48.768;8.850;2023-03-03T05:40:40;97165.50;;;0.02;100.00
24306;BME280;12423;48.768;8.850;2023-03-03T05:42:41;97167.81;;;0.09;100.00
24306;BME280;12423;48.768;8.850;2023-03-03T05:44:42;97168.59;;;0.11;100.00
24306;BME280;12423;48.768;8.850;2023-03-03T05:46:43;97175.44;;;0.15;100.00
24306;BME280;12423;48.768;8.850;2023-03-03T05:48:44;97170.31;;;0.12;100.00
24306;BME280;12423;48.768;8.850;2023-03-03T05:50:45;97173.84;;;0.11;100.00
24306;BME280;12423;48.768;8.850;2023-03-03T05:52:47;97178.66;;;0.22;100.00
24306;BME280;12423;48.768;8.850;2023-03-03T05:54:48;97185.41;;;0.28;100.00
24306;BME280;12423;48.768;8.850;2023-03-03T05:56:49;97183.84;;;0.24;100.00
24306;BME280;12423;48.768;8.850;2023-03-03T05:58:50;97183.44;;;0.33;100.00
24306;BME280;12423;48.768;8.850;2023-03-03T06:00:51;97182.66;;;0.31;100.00
24306;BME280;12423;48.768;8.850;2023-03-03T06:02:52;97192.41;;;0.29;100.00
24306;BME280;12423;48.768;8.850;2023-03-03T06:04:53;97189.91;;;0.26;100.00
24306;BME280;12423;48.768;8.850;2023-03-03T06:06:54;97191.50;;;0.30;100.00
24306;BME280;12423;48.768;8.850;2023-03-03T06:08:55;97192.28;;;0.32;100.00
24306;BME280;12423;48.768;8.850;2023-03-03T06:10:55;97193.69;;;0.39;100.00
24306;BME280;12423;48.768;8.850;2023-03-03T06:12:57;97194.25;;;0.27;100.00
24306;BME280;12423;48.768;8.850;2023-03-03T06:14:58;97195.81;;;0.31;100.00
24306;BME280;12423;48.768;8.850;2023-03-03T06:16:59;97201.59;;;0.39;100.00
24306;BME280;12423;48.768;8.850;2023-03-03T06:19:00;97197.19;;;0.40;100.00
24306;BME280;12423;48.768;8.850;2023-03-03T06:21:01;97198.06;;;0.40;100.00
24306;BME280;12423;48.768;8.850;2023-03-03T06:23:02;97201.66;;;0.38;100.00
24306;BME280;12423;48.768;8.850;2023-03-03T06:25:03;97196.41;;;0.38;100.00
24306;BME280;12423;48.768;8.850;2023-03-03T06:27:04;97206.06;;;0.37;100.00
24306;BME280;12423;48.768;8.850;2023-03-03T06:29:05;97203.38;;;0.39;100.00
24306;BME280;12423;48.768;8.850;2023-03-03T06:31:06;97210.41;;;0.38;100.00
24306;BME280;12423;48.768;8.850;2023-03-03T06:33:07;97209.16;;;0.47;100.00
24306;BME280;12423;48.768;8.850;2023-03-03T06:35:08;97214.41;;;0.47;100.00
24306;BME280;12423;48.768;8.850;2023-03-03T06:37:09;97215.25;;;0.47;100.00
24306;BME280;12423;48.768;8.850;2023-03-03T06:39:10;97222.88;;;0.33;100.00
24306;BME280;12423;48.768;8.850;2023-03-03T06:41:11;97216.44;;;0.40;100.00
24306;BME280;12423;48.768;8.850;2023-03-03T06:43:12;97215.31;;;0.46;100.00
24306;BME280;12423;48.768;8.850;2023-03-03T06:45:14;97225.50;;;0.53;100.00
24306;BME280;12423;48.768;8.850;2023-03-03T06:47:15;97226.03;;;0.62;100.00
24306;BME280;12423;48.768;8.850;2023-03-03T06:49:16;97232.09;;;0.64;100.00
24306;BME280;12423;48.768;8.850;2023-03-03T06:51:22;97224.59;;;0.75;100.00
24306;BME280;12423;48.768;8.850;2023-03-03T06:53:25;97243.56;;;0.82;100.00
24306;BME280;12423;48.768;8.850;2023-03-03T06:55:26;97235.75;;;0.80;100.00
24306;BME280;12423;48.768;8.850;2023-03-03T06:57:29;97238.28;;;1.02;100.00
24306;BME280;12423;48.768;8.850;2023-03-03T06:59:30;97227.09;;;0.97;100.00
24306;BME280;12423;48.768;8.850;2023-03-03T07:01:35;97242.03;;;0.97;100.00
24306;BME280;12423;48.768;8.850;2023-03-03T07:03:36;97246.59;;;0.93;100.00
24306;BME280;12423;48.768;8.850;2023-03-03T07:05:38;97250.06;;;0.94;100.00
24306;BME280;12423;48.768;8.850;2023-03-03T07:07:39;97249.28;;;0.91;100.00
24306;BME280;12423;48.768;8.850;2023-03-03T07:09:43;97254.69;;;0.88;100.00
24306;BME280;12423;48.768;8.850;2023-03-03T07:11:44;97243.19;;;0.91;100.00
24306;BME280;12423;48.768;8.850;2023-03-03T07:13:49;97247.50;;;0.92;100.00
24306;BME280;12423;48.768;8.850;2023-03-03T07:15:52;97246.41;;;0.98;100.00
24306;BME280;12423;48.768;8.850;2023-03-03T07:17:55;97245.47;;;0.99;100.00
24306;BME280;12423;48.768;8.850;2023-03-03T07:20:00;97250.47;;;1.05;100.00
24306;BME280;12423;48.768;8.850;2023-03-03T07:22:27;97257.13;;;1.12;100.00
24306;BME280;12423;48.768;8.850;2023-03-03T07:24:30;97256.88;;;1.18;100.00
24306;BME280;12423;48.768;8.850;2023-03-03T07:26:31;97268.19;;;1.20;100.00
24306;BME280;12423;48.768;8.850;2023-03-03T07:28:32;97260.00;;;1.26;100.00
24306;BME280;12423;48.768;8.850;2023-03-03T07:30:33;97269.69;;;1.26;100.00
24306;BME280;12423;48.768;8.850;2023-03-03T07:32:41;97260.72;;;1.30;100.00
24306;BME280;12423;48.768;8.850;2023-03-03T07:34:45;97257.88;;;1.35;100.00
24306;BME280;12423;48.768;8.850;2023-03-03T07:36:49;97255.19;;;1.36;100.00
24306;BME280;12423;48.768;8.850;2023-03-03T07:38:53;97256.03;;;1.37;100.00
24306;BME280;12423;48.768;8.850;2023-03-03T07:40:57;97262.88;;;1.41;100.00
24306;BME280;12423;48.768;8.850;2023-03-03T07:42:58;97261.03;;;1.43;100.00
24306;BME280;12423;48.768;8.850;2023-03-03T07:45:22;97272.84;;;1.53;100.00
24306;BME280;12423;48.768;8.850;2023-03-03T07:47:30;97262.16;;;1.56;100.00
24306;BME280;12423;48.768;8.850;2023-03-03T07:49:36;97265.28;;;1.64;100.00
24306;BME280;12423;48.768;8.850;2023-03-03T07:51:39;97264.19;;;1.70;100.00
24306;BME280;12423;48.768;8.850;2023-03-03T07:53:41;97257.88;;;1.73;100.00
24306;BME280;12423;48.768;8.850;2023-03-03T07:55:42;97268.78;;;1.84;100.00
24306;BME280;12423;48.768;8.850;2023-03-03T07:57:45;97264.78;;;1.94;100.00
24306;BME280;12423;48.768;8.850;2023-03-03T07:59:50;97268.09;;;1.98;100.00
24306;BME280;12423;48.768;8.850;2023-03-03T08:01:57;97273.03;;;2.06;100.00
24306;BME280;12423;48.768;8.850;2023-03-03T08:04:00;97272.38;;;2.00;100.00
24306;BME280;12423;48.768;8.850;2023-03-03T08:06:22;97274.75;;;2.07;100.00
24306;BME280;12423;48.768;8.850;2023-03-03T08:08:33;97272.19;;;2.05;100.00
24306;BME280;12423;48.768;8.850;2023-03-03T08:10:52;97275.22;;;2.15;100.00
24306;BME280;12423;48.768;8.850;2023-03-03T08:12:54;97275.50;;;2.09;100.00
24306;BME280;12423;48.768;8.850;2023-03-03T08:14:57;97280.63;;;2.12;100.00
24306;BME280;12423;48.768;8.850;2023-03-03T08:17:16;97274.91;;;2.21;100.00
24306;BME280;12423;48.768;8.850;2023-03-03T08:19:19;97270.75;;;2.34;100.00
24306;BME280;12423;48.768;8.850;2023-03-03T08:21:22;97282.41;;;2.48;100.00
24306;BME280;12423;48.768;8.850;2023-03-03T08:23:24;97278.22;;;2.61;100.00
24306;BME280;12423;48.768;8.850;2023-03-03T08:25:25;97279.53;;;2.70;100.00
24306;BME280;12423;48.768;8.850;2023-03-03T08:27:26;97282.16;;;2.70;100.00
24306;BME280;12423;48.768;8.850;2023-03-03T08:29:27;97272.16;;;2.76;100.00
24306;BME280;12423;48.768;8.850;2023-03-03T08:31:28;97271.94;;;2.81;100.00
24306;BME280;12423;48.768;8.850;2023-03-03T08:33:29;97271.22;;;2.95;100.00
24306;BME280;12423;48.768;8.850;2023-03-03T08:35:30;97274.53;;;3.16;100.00
24306;BME280;12423;48.768;8.850;2023-03-03T08:37:31;97268.78;;;3.25;100.00
24306;BME280;12423;48.768;8.850;2023-03-03T08:39:32;97270.81;;;3.36;100.00
24306;BME280;12423;48.768;8.850;2023-03-03T08:41:33;97270.81;;;3.36;100.00
24306;BME280;12423;48.768;8.850;2023-03-03T08:43:34;97270.81;;;3.36;100.00
24306;BME280;12423;48.768;8.850;2023-03-03T08:45:35;97271.34;;;3.43;100.00
24306;BME280;12423;48.768;8.850;2023-03-03T08:47:37;97273.09;;;3.60;100.00
24306;BME280;12423;48.768;8.850;2023-03-03T08:49:38;97268.31;;;3.50;100.00
24306;BME280;12423;48.768;8.850;2023-03-03T08:51:40;97268.34;;;3.66;100.00
24306;BME280;12423;48.768;8.850;2023-03-03T08:53:40;97274.47;;;3.67;100.00
24306;BME280;12423;48.768;8.850;2023-03-03T08:55:42;97266.25;;;3.56;100.00
24306;BME280;12423;48.768;8.850;2023-03-03T08:57:43;97268.13;;;3.54;100.00
24306;BME280;12423;48.768;8.850;2023-03-03T08:59:44;97276.50;;;3.62;100.00
24306;BME280;12423;48.768;8.850;2023-03-03T09:01:47;97270.69;;;3.71;100.00
24306;BME280;12423;48.768;8.850;2023-03-03T09:03:48;97272.25;;;3.75;100.00
24306;BME280;12423;48.768;8.850;2023-03-03T09:05:49;97277.69;;;3.72;100.00
24306;BME280;12423;48.768;8.850;2023-03-03T09:07:50;97285.72;;;3.86;100.00
24306;BME280;12423;48.768;8.850;2023-03-03T09:09:51;97284.53;;;3.76;100.00
24306;BME280;12423;48.768;8.850;2023-03-03T09:11:57;97290.59;;;3.78;100.00
24306;BME280;12423;48.768;8.850;2023-03-03T09:14:13;97289.97;;;3.89;100.00
24306;BME280;12423;48.768;8.850;2023-03-03T09:16:15;97283.84;;;3.88;100.00
24306;BME280;12423;48.768;8.850;2023-03-03T09:18:30;97294.25;;;3.92;100.00
24306;BME280;12423;48.768;8.850;2023-03-03T09:20:44;97299.72;;;4.04;100.00
24306;BME280;12423;48.768;8.850;2023-03-03T09:22:46;97299.19;;;4.14;100.00
24306;BME280;12423;48.768;8.850;2023-03-03T09:24:48;97308.06;;;4.13;100.00
24306;BME280;12423;48.768;8.850;2023-03-03T09:26:49;97309.94;;;4.27;100.00
24306;BME280;12423;48.768;8.850;2023-03-03T09:29:18;97304.13;;;4.36;100.00
24306;BME280;12423;48.768;8.850;2023-03-03T09:31:55;97309.50;;;4.34;100.00
24306;BME280;12423;48.768;8.850;2023-03-03T09:33:56;97312.41;;;4.46;100.00
24306;BME280;12423;48.768;8.850;2023-03-03T09:36:10;97317.06;;;4.40;100.00
24306;BME280;12423;48.768;8.850;2023-03-03T09:38:26;97314.00;;;4.48;100.00
24306;BME280;12423;48.768;8.850;2023-03-03T09:43:01;97312.16;;;4.34;100.00
24306;BME280;12423;48.768;8.850;2023-03-03T09:50:33;97308.59;;;4.66;100.00
24306;BME280;12423;48.768;8.850;2023-03-03T10:00:19;97311.81;;;4.87;100.00
24306;BME280;12423;48.768;8.850;2023-03-03T10:04:43;97306.94;;;4.79;100.00
24306;BME280;12423;48.768;8.850;2023-03-03T10:09:40;97301.00;;;5.20;100.00
24306;BME280;12423;48.768;8.850;2023-03-03T10:11:49;97309.38;;;5.12;100.00
24306;BME280;12423;48.768;8.850;2023-03-03T10:16:56;97309.16;;;5.31;100.00
24306;BME280;12423;48.768;8.850;2023-03-03T10:19:26;97315.75;;;5.39;100.00
24306;BME280;12423;48.768;8.850;2023-03-03T10:22:19;97312.66;;;5.46;100.00
24306;BME280;12423;48.768;8.850;2023-03-03T10:24:39;97311.50;;;5.50;100.00
24306;BME280;12423;48.768;8.850;2023-03-03T10:29:07;97311.22;;;5.84;100.00
24306;BME280;12423;48.768;8.850;2023-03-03T10:42:57;97307.50;;;6.57;93.50
24306;BME280;12423;48.768;8.850;2023-03-03T10:50:33;97304.13;;;7.20;89.23
24306;BME280;12423;48.768;8.850;2023-03-03T10:58:01;97301.16;;;7.64;84.20
24306;BME280;12423;48.768;8.850;2023-03-03T11:00:23;97312.41;;;7.93;82.58
24306;BME280;12423;48.768;8.850;2023-03-03T11:02:32;97309.63;;;7.94;81.69
24306;BME280;12423;48.768;8.850;2023-03-03T11:07:29;97304.47;;;8.54;78.99
24306;BME280;12423;48.768;8.850;2023-03-03T11:16:49;97298.53;;;9.91;72.25
24306;BME280;12423;48.768;8.850;2023-03-03T11:23:27;97304.22;;;10.43;67.02
24306;BME280;12423;48.768;8.850;2023-03-03T11:25:53;97307.00;;;10.41;66.20
24306;BME280;12423;48.768;8.850;2023-03-03T11:32:32;97303.34;;;10.86;64.51
24306;BME280;12423;48.768;8.850;2023-03-03T11:37:21;97303.88;;;10.36;64.41
24306;BME280;12423;48.768;8.850;2023-03-03T11:39:24;97311.84;;;9.80;65.46
24306;BME280;12423;48.768;8.850;2023-03-03T11:43:52;97302.22;;;9.32;68.73
24306;BME280;12423;48.768;8.850;2023-03-03T11:45:58;97305.72;;;9.21;69.53
24306;BME280;12423;48.768;8.850;2023-03-03T11:48:13;97305.72;;;9.21;68.10
24306;BME280;12423;48.768;8.850;2023-03-03T11:50:22;97298.47;;;8.88;69.36
24306;BME280;12423;48.768;8.850;2023-03-03T11:59:39;97281.44;;;9.01;69.17
24306;BME280;12423;48.768;8.850;2023-03-03T12:03:55;97279.97;;;9.55;68.62
24306;BME280;12423;48.768;8.850;2023-03-03T12:09:29;97275.97;;;9.72;65.74
24306;BME280;12423;48.768;8.850;2023-03-03T12:13:38;97271.28;;;10.31;64.26
24306;BME280;12423;48.768;8.850;2023-03-03T12:15:54;97267.84;;;10.63;63.82
24306;BME280;12423;48.768;8.850;2023-03-03T12:18:27;97266.75;;;10.54;64.01
24306;BME280;12423;48.768;8.850;2023-03-03T12:25:32;97266.38;;;11.85;60.85
24306;BME280;12423;48.768;8.850;2023-03-03T12:30:14;97270.03;;;11.84;58.17
24306;BME280;12423;48.768;8.850;2023-03-03T12:32:46;97257.06;;;11.06;60.54
24306;BME280;12423;48.768;8.850;2023-03-03T12:37:52;97259.91;;;10.40;62.91
24306;BME280;12423;48.768;8.850;2023-03-03T12:44:39;97262.16;;;11.31;59.73